createdAt,value
2019-03-28T00:02:00.234Z,50.78
2019-03-28T00:04:30.091Z,50.96
2019-03-28T00:07:00.758Z,50.86
2019-03-28T00:09:30.827Z,50.77
2019-03-28T00:12:03.749Z,50.97
2019-03-28T00:14:33.610Z,51.25
2019-03-28T00:17:03.883Z,51.28
2019-03-28T00:19:33.731Z,51.19
2019-03-28T00:22:05.760Z,51.14
2019-03-28T00:24:58.065Z,51.19
2019-03-28T00:27:27.866Z,51.13
2019-03-28T00:29:57.800Z,50.96
2019-03-28T00:32:28.026Z,51.22
2019-03-28T00:34:57.959Z,51.26
2019-03-28T00:37:27.779Z,51.19
2019-03-28T00:39:57.949Z,51.06
2019-03-28T00:42:27.784Z,51.10
2019-03-28T00:44:59.534Z,51.21
2019-03-28T00:47:29.486Z,51.52
2019-03-28T00:49:59.304Z,51.56
2019-03-28T00:52:29.349Z,51.69
2019-03-28T00:54:59.145Z,51.63
2019-03-28T00:57:28.963Z,51.63
2019-03-28T00:59:58.765Z,51.77
2019-03-28T01:02:28.533Z,52.08
2019-03-28T01:04:58.604Z,52.45
2019-03-28T01:07:28.409Z,53.12
2019-03-28T01:09:59.163Z,52.81
2019-03-28T01:12:29.266Z,52.98
2019-03-28T01:14:59.241Z,53.02
2019-03-28T01:17:28.992Z,53.54
2019-03-28T01:19:59.096Z,53.44
2019-03-28T01:22:28.860Z,53.59
2019-03-28T01:24:58.624Z,53.87
2019-03-28T01:27:28.701Z,54.08
2019-03-28T01:29:58.486Z,54.29
2019-03-28T01:32:28.447Z,54.45
2019-03-28T01:34:58.515Z,54.44
2019-03-28T01:37:29.183Z,54.85
2019-03-28T01:39:59.007Z,54.89
2019-03-28T01:42:29.125Z,55.13
2019-03-28T01:44:58.878Z,55.03
2019-03-28T01:47:28.733Z,55.08
2019-03-28T01:49:58.817Z,55.12
2019-03-28T01:52:28.585Z,54.88
2019-03-28T01:54:58.345Z,55.00
2019-03-28T01:57:28.456Z,54.81
2019-03-28T01:59:58.237Z,55.14
2019-03-28T02:02:27.977Z,55.35
2019-03-28T02:04:58.092Z,55.30
2019-03-28T02:07:27.889Z,55.42
2019-03-28T02:09:58.171Z,55.50
2019-03-28T02:12:30.137Z,55.71
2019-03-28T02:14:59.895Z,55.42
2019-03-28T02:17:29.676Z,55.79
2019-03-28T02:19:59.773Z,55.81
2019-03-28T02:22:29.558Z,56.22
2019-03-28T02:24:59.306Z,56.35
2019-03-28T02:27:30.392Z,56.10
2019-03-28T02:30:00.527Z,56.09
2019-03-28T02:32:30.344Z,55.88
2019-03-28T02:35:00.632Z,56.13
2019-03-28T02:37:30.405Z,56.31
2019-03-28T02:40:00.493Z,56.52
2019-03-28T02:42:30.610Z,56.81
2019-03-28T02:45:00.699Z,56.58
2019-03-28T02:47:30.398Z,56.55
2019-03-28T02:50:00.562Z,56.54
2019-03-28T02:52:30.403Z,56.70
2019-03-28T02:55:02.290Z,56.90
2019-03-28T02:57:41.154Z,57.16
2019-03-28T03:00:05.239Z,57.83
2019-03-28T03:02:35.002Z,57.48
2019-03-28T03:05:05.252Z,57.43
2019-03-28T03:07:35.034Z,57.81
2019-03-28T03:10:06.231Z,58.21
2019-03-28T03:12:36.325Z,58.08
2019-03-28T03:15:07.031Z,57.64
2019-03-28T03:17:36.798Z,57.68
2019-03-28T03:20:10.017Z,57.67
2019-03-28T03:22:39.755Z,57.73
2019-03-28T03:25:09.683Z,57.81
2019-03-28T03:27:56.281Z,57.59
2019-03-28T03:30:11.460Z,57.61
2019-03-28T03:32:41.226Z,57.58
2019-03-28T03:35:11.440Z,57.82
2019-03-28T03:37:41.200Z,57.90
2019-03-28T03:40:11.073Z,58.00
2019-03-28T03:42:41.173Z,57.99
2019-03-28T03:45:10.932Z,58.27
2019-03-28T03:47:40.678Z,58.50
2019-03-28T03:50:12.472Z,58.51
2019-03-28T03:52:42.239Z,58.77
2019-03-28T03:55:13.304Z,58.51
2019-03-28T03:57:43.136Z,58.62
2019-03-28T04:00:14.468Z,58.92
2019-03-28T04:02:44.510Z,58.89
2019-03-28T04:05:14.328Z,59.07
2019-03-28T04:07:44.123Z,59.11
2019-03-28T04:10:14.186Z,59.94
2019-03-28T04:12:43.976Z,59.46
2019-03-28T04:15:13.875Z,59.49
2019-03-28T04:17:44.785Z,59.33
2019-03-28T04:20:14.565Z,59.53
2019-03-28T04:22:44.314Z,59.47
2019-03-28T04:25:14.382Z,59.36
2019-03-28T04:27:44.255Z,59.38
2019-03-28T04:30:14.167Z,59.36
2019-03-28T04:32:44.224Z,59.43
2019-03-28T04:35:14.052Z,60.37
2019-03-28T04:37:43.818Z,59.76
2019-03-28T04:40:13.883Z,59.50
2019-03-28T04:42:45.872Z,60.13
2019-03-28T04:45:15.215Z,59.88
2019-03-28T04:47:44.981Z,59.70
2019-03-28T04:50:15.006Z,60.76
2019-03-28T04:52:45.569Z,61.46
2019-03-28T04:55:15.490Z,61.87
2019-03-28T04:57:45.290Z,62.53
2019-03-28T05:00:15.582Z,62.80
2019-03-28T05:02:46.170Z,61.51
2019-03-28T05:05:16.030Z,61.12
2019-03-28T05:07:46.177Z,61.05
2019-03-28T05:10:16.043Z,61.91
2019-03-28T05:12:45.861Z,61.98
2019-03-28T05:15:16.102Z,61.97
2019-03-28T05:17:45.891Z,61.36
2019-03-28T05:20:15.956Z,60.96
2019-03-28T05:22:46.102Z,60.96
2019-03-28T05:25:15.858Z,61.34
2019-03-28T05:27:45.636Z,60.89
2019-03-28T05:30:15.813Z,61.01
2019-03-28T05:32:45.607Z,61.11
2019-03-28T05:35:15.414Z,61.18
2019-03-28T05:37:45.549Z,61.46
2019-03-28T05:40:15.325Z,61.17
2019-03-28T05:42:45.240Z,61.21
2019-03-28T05:45:15.283Z,61.55
2019-03-28T05:47:45.063Z,61.16
2019-03-28T05:50:14.887Z,61.56
2019-03-28T05:52:45.030Z,61.96
2019-03-28T05:55:14.802Z,63.71
2019-03-28T05:57:44.603Z,62.91
2019-03-28T06:00:15.385Z,63.95
2019-03-28T06:02:45.167Z,63.77
2019-03-28T06:05:14.992Z,64.10
2019-03-28T06:07:46.074Z,64.36
2019-03-28T06:10:16.531Z,64.62
2019-03-28T06:12:46.369Z,64.56
2019-03-28T06:15:17.733Z,63.65
2019-03-28T06:17:47.565Z,63.95
2019-03-28T06:20:17.350Z,63.84
2019-03-28T06:22:48.361Z,64.53
2019-03-28T06:25:18.146Z,64.10
2019-03-28T06:27:47.882Z,64.60
2019-03-28T06:30:18.474Z,64.10
2019-03-28T06:32:48.463Z,65.10
2019-03-28T06:35:18.735Z,64.27
2019-03-28T06:37:51.634Z,64.12
2019-03-28T06:40:21.449Z,64.63
2019-03-28T06:42:51.302Z,63.54
2019-03-28T06:45:21.435Z,64.03
2019-03-28T06:47:51.265Z,64.54
2019-03-28T06:50:21.107Z,63.35
2019-03-28T06:52:51.354Z,63.50
2019-03-28T06:55:23.896Z,63.04
2019-03-28T06:57:52.752Z,61.84
2019-03-28T07:00:22.567Z,61.04
2019-03-28T07:02:52.343Z,60.69
2019-03-28T07:05:22.581Z,60.75
2019-03-28T07:07:52.382Z,60.81
2019-03-28T07:10:22.295Z,60.54
2019-03-28T07:12:52.523Z,60.06
2019-03-28T07:15:22.353Z,59.08
2019-03-28T07:17:52.178Z,59.13
2019-03-28T07:20:23.369Z,58.44
2019-03-28T07:22:53.406Z,57.67
2019-03-28T07:25:25.547Z,56.69
2019-03-28T07:27:55.828Z,56.66
2019-03-28T07:30:25.623Z,58.25
2019-03-28T07:32:55.406Z,57.93
2019-03-28T07:35:25.583Z,57.29
2019-03-28T07:37:55.810Z,56.89
2019-03-28T07:40:26.214Z,56.74
2019-03-28T07:42:56.423Z,56.64
2019-03-28T07:45:28.082Z,55.84
2019-03-28T07:48:02.767Z,56.17
2019-03-28T07:50:33.591Z,55.76
2019-03-28T07:53:03.559Z,57.24
2019-03-28T07:55:33.431Z,55.86
2019-03-28T07:58:11.124Z,54.73
2019-03-28T08:00:41.323Z,54.31
2019-03-28T08:03:12.044Z,54.16
2019-03-28T08:05:42.501Z,53.51
2019-03-28T08:08:13.294Z,53.32
2019-03-28T08:10:44.662Z,53.04
2019-03-28T08:13:15.037Z,53.03
2019-03-28T08:15:45.168Z,53.65
2019-03-28T08:18:15.431Z,54.73
2019-03-28T08:20:45.627Z,54.32
2019-03-28T08:23:16.013Z,54.06
2019-03-28T08:25:46.905Z,54.45
2019-03-28T08:28:17.776Z,54.24
2019-03-28T08:30:47.846Z,54.47
2019-03-28T08:33:18.675Z,54.59
2019-03-28T08:35:53.713Z,54.32
2019-03-28T08:38:24.347Z,54.79
2019-03-28T08:40:54.890Z,53.93
2019-03-28T08:43:27.997Z,54.20
2019-03-28T08:45:57.998Z,54.87
2019-03-28T08:48:29.625Z,53.98
2019-03-28T08:51:07.354Z,53.17
2019-03-28T08:53:39.647Z,54.05
2019-03-28T08:56:10.101Z,53.76
2019-03-28T08:58:40.901Z,53.59
2019-03-28T09:01:13.445Z,53.27
2019-03-28T09:03:44.909Z,52.84
2019-03-28T09:06:17.071Z,52.95
2019-03-28T09:08:47.418Z,52.02
2019-03-28T09:11:21.655Z,50.98
2019-03-28T09:13:53.431Z,50.71
2019-03-28T09:16:26.233Z,49.73
2019-03-28T09:18:56.520Z,50.73
2019-03-28T09:21:27.333Z,50.82
2019-03-28T09:23:58.194Z,50.06
2019-03-28T09:26:28.546Z,48.98
2019-03-28T09:28:59.318Z,48.64
2019-03-28T09:31:31.712Z,47.94
2019-03-28T09:34:06.677Z,47.74
2019-03-28T09:36:37.665Z,47.14
2019-03-28T09:39:11.753Z,46.72
2019-03-28T09:41:42.658Z,46.10
2019-03-28T09:44:14.649Z,46.16
2019-03-28T09:46:45.559Z,45.64
2019-03-28T09:49:16.273Z,45.26
2019-03-28T09:51:46.118Z,44.92
2019-03-28T09:54:15.935Z,44.55
2019-03-28T09:56:46.840Z,43.90
2019-03-28T09:59:20.519Z,43.77
2019-03-28T10:01:51.853Z,42.71
2019-03-28T10:04:24.040Z,42.71
2019-03-28T10:06:55.891Z,41.21
2019-03-28T10:09:30.234Z,40.69
2019-03-28T10:12:00.235Z,39.84
2019-03-28T10:14:30.061Z,39.39
2019-03-28T10:16:59.916Z,39.08
2019-03-28T10:19:29.914Z,37.98
2019-03-28T10:22:00.036Z,38.99
2019-03-28T10:24:29.897Z,38.06
2019-03-28T10:26:59.928Z,37.64
2019-03-28T10:29:29.993Z,36.72
2019-03-28T10:31:59.826Z,36.19
2019-03-28T10:34:30.551Z,35.98
2019-03-28T10:37:00.762Z,35.32
2019-03-28T10:39:30.703Z,34.85
2019-03-28T10:42:00.548Z,35.00
2019-03-28T10:44:30.648Z,34.49
2019-03-28T10:47:00.751Z,34.39
2019-03-28T10:49:30.571Z,34.31
2019-03-28T10:52:03.699Z,33.98
2019-03-28T10:54:32.078Z,33.68
2019-03-28T10:57:12.876Z,33.88
2019-03-28T10:59:34.030Z,32.98
2019-03-28T11:02:05.155Z,33.06
2019-03-28T11:04:35.259Z,33.25
2019-03-28T11:07:05.089Z,33.59
2019-03-28T11:09:34.935Z,33.06
2019-03-28T11:12:07.331Z,33.37
2019-03-28T11:14:37.118Z,33.36
2019-03-28T11:17:07.528Z,32.77
2019-03-28T11:19:37.638Z,32.44
2019-03-28T11:22:07.469Z,32.01
2019-03-28T11:24:37.294Z,32.05
2019-03-28T11:27:07.402Z,31.89
2019-03-28T11:29:37.200Z,31.37
2019-03-28T11:32:09.869Z,31.83
2019-03-28T11:34:40.781Z,31.50
2019-03-28T11:37:25.011Z,31.73
2019-03-28T11:39:44.601Z,32.26
2019-03-28T11:42:14.492Z,31.89
2019-03-28T11:44:44.695Z,31.56
2019-03-28T11:47:14.559Z,31.50
2019-03-28T11:49:44.419Z,30.88
2019-03-28T11:52:15.212Z,30.32
2019-03-28T11:54:45.043Z,29.79
2019-03-28T11:57:15.973Z,29.42
2019-03-28T11:59:46.472Z,29.43
2019-03-28T12:02:20.075Z,28.42
2019-03-28T12:04:48.455Z,28.85
2019-03-28T12:07:18.466Z,28.16
2019-03-28T12:09:49.023Z,27.95
2019-03-28T12:12:19.434Z,28.43
2019-03-28T12:14:49.350Z,28.75
2019-03-28T12:17:19.179Z,28.49
2019-03-28T12:19:49.263Z,28.00
2019-03-28T12:22:19.049Z,28.47
2019-03-28T12:24:48.966Z,28.12
2019-03-28T12:27:19.069Z,27.05
2019-03-28T12:29:49.802Z,26.92
2019-03-28T12:32:19.762Z,27.15
2019-03-28T12:34:49.830Z,26.43
2019-03-28T12:37:19.611Z,26.38
2019-03-28T12:39:49.502Z,26.06
2019-03-28T12:42:19.733Z,26.19
2019-03-28T12:44:57.023Z,26.39
2019-03-28T12:47:21.469Z,26.47
2019-03-28T12:49:51.258Z,26.05
2019-03-28T12:52:21.046Z,25.05
2019-03-28T12:54:50.866Z,24.62
2019-03-28T12:57:20.961Z,23.79
2019-03-28T12:59:53.463Z,24.08
2019-03-28T13:02:31.417Z,23.58
2019-03-28T13:04:54.150Z,23.43
2019-03-28T13:07:24.014Z,23.31
2019-03-28T13:09:53.905Z,22.97
2019-03-28T13:12:23.967Z,22.61
2019-03-28T13:14:53.988Z,22.78
2019-03-28T13:17:23.803Z,23.27
2019-03-28T13:19:57.070Z,23.20
2019-03-28T13:22:26.961Z,23.47
2019-03-28T13:24:56.781Z,23.75
2019-03-28T13:27:26.911Z,24.10
2019-03-28T13:29:56.698Z,24.45
2019-03-28T13:32:26.509Z,24.39
2019-03-28T13:34:56.590Z,24.31
2019-03-28T13:37:26.413Z,24.65
2019-03-28T13:39:56.202Z,25.00
2019-03-28T13:42:27.188Z,24.87
2019-03-28T13:44:57.153Z,24.37
2019-03-28T13:47:27.009Z,24.66
2019-03-28T13:49:57.148Z,24.61
2019-03-28T13:52:26.929Z,24.21
2019-03-28T13:54:56.700Z,24.23
2019-03-28T13:57:28.596Z,25.13
2019-03-28T13:59:58.671Z,25.50
2019-03-28T14:02:28.599Z,26.18
2019-03-28T14:04:58.683Z,26.88
2019-03-28T14:07:28.548Z,27.11
2019-03-28T14:09:58.434Z,27.54
2019-03-28T14:12:28.573Z,28.06
2019-03-28T14:14:58.427Z,28.93
2019-03-28T14:17:28.424Z,29.32
2019-03-28T14:19:58.530Z,29.80
2019-03-28T14:22:28.387Z,30.24
2019-03-28T14:24:58.431Z,31.09
2019-03-28T14:27:28.785Z,31.99
2019-03-28T14:29:58.785Z,32.92
2019-03-28T14:32:28.982Z,33.11
2019-03-28T14:34:59.010Z,33.89
2019-03-28T14:37:29.106Z,34.85
2019-03-28T14:39:59.310Z,34.17
2019-03-28T14:42:29.730Z,33.72
2019-03-28T14:45:02.573Z,34.35
2019-03-28T14:47:32.313Z,34.91
2019-03-28T14:50:04.312Z,34.98
2019-03-28T14:52:35.231Z,35.22
2019-03-28T14:55:05.431Z,35.38
2019-03-28T14:57:35.414Z,35.18
2019-03-28T15:00:07.311Z,35.49
2019-03-28T15:02:37.706Z,35.79
2019-03-28T15:05:07.763Z,35.48
2019-03-28T15:07:37.716Z,35.63
2019-03-28T15:10:08.600Z,36.04
2019-03-28T15:12:38.633Z,36.14
2019-03-28T15:15:08.758Z,35.64
2019-03-28T15:17:39.304Z,35.75
2019-03-28T15:20:09.537Z,35.48
2019-03-28T15:22:39.614Z,35.31
2019-03-28T15:25:10.225Z,35.72
2019-03-28T15:27:40.264Z,36.08
2019-03-28T15:30:10.611Z,36.41
2019-03-28T15:32:40.910Z,36.16
2019-03-28T15:35:13.081Z,35.77
2019-03-28T15:37:43.249Z,35.61
2019-03-28T15:40:13.946Z,36.02
2019-03-28T15:42:44.213Z,35.29
2019-03-28T15:45:15.314Z,35.31
2019-03-28T15:47:52.044Z,35.28
2019-03-28T15:50:21.935Z,35.12
2019-03-28T15:52:52.257Z,34.81
2019-03-28T15:55:23.249Z,33.87
2019-03-28T15:57:53.726Z,33.85
2019-03-28T16:00:24.424Z,33.48
2019-03-28T16:02:54.775Z,33.79
2019-03-28T16:05:25.154Z,33.98
2019-03-28T16:07:55.615Z,33.77
2019-03-28T16:10:25.753Z,33.52
2019-03-28T16:12:56.222Z,33.77
2019-03-28T16:15:26.226Z,33.99
2019-03-28T16:17:57.700Z,34.28
2019-03-28T16:20:28.195Z,34.36
2019-03-28T16:22:58.579Z,34.62
2019-03-28T16:25:28.768Z,35.35
2019-03-28T16:27:58.801Z,36.55
2019-03-28T16:30:40.653Z,37.50
2019-03-28T16:33:11.346Z,37.96
2019-03-28T16:35:41.495Z,38.56
2019-03-28T16:38:11.742Z,39.10
2019-03-28T16:40:41.958Z,39.14
2019-03-28T16:43:12.425Z,39.57
2019-03-28T16:45:43.225Z,40.23
2019-03-28T16:48:13.582Z,40.83
2019-03-28T16:50:44.694Z,40.60
2019-03-28T16:53:15.343Z,40.32
2019-03-28T16:55:47.287Z,40.62
2019-03-28T16:58:19.221Z,40.50
2019-03-28T17:00:50.977Z,41.02
2019-03-28T17:03:22.565Z,41.04
2019-03-28T17:05:55.972Z,41.42
2019-03-28T17:08:27.313Z,41.82
2019-03-28T17:10:57.816Z,41.54
2019-03-28T17:13:28.257Z,41.70
2019-03-28T17:15:58.575Z,41.71
2019-03-28T17:18:28.923Z,41.58
2019-03-28T17:20:59.324Z,42.09
2019-03-28T17:23:29.778Z,41.96
2019-03-28T17:25:59.950Z,41.91
2019-03-28T17:28:30.314Z,42.28
2019-03-28T17:31:01.316Z,41.83
2019-03-28T17:33:32.274Z,41.78
2019-03-28T17:36:04.209Z,42.11
2019-03-28T17:38:34.783Z,41.76
2019-03-28T17:41:06.673Z,42.09
2019-03-28T17:43:37.245Z,42.62
2019-03-28T17:46:12.528Z,42.80
2019-03-28T17:48:42.826Z,42.80
2019-03-28T17:51:14.643Z,43.32
2019-03-28T17:53:45.572Z,43.73
2019-03-28T17:56:16.045Z,44.78
2019-03-28T17:58:46.798Z,45.12
2019-03-28T18:01:17.056Z,44.86
2019-03-28T18:03:47.390Z,45.10
2019-03-28T18:06:18.197Z,45.29
2019-03-28T18:08:48.549Z,45.65
2019-03-28T18:11:19.090Z,45.54
2019-03-28T18:13:49.852Z,45.76
2019-03-28T18:16:20.257Z,46.07
2019-03-28T18:18:50.995Z,46.41
2019-03-28T18:21:21.349Z,46.42
2019-03-28T18:23:51.671Z,46.91
2019-03-28T18:26:22.046Z,46.76
2019-03-28T18:28:52.582Z,47.16
2019-03-28T18:31:23.291Z,47.44
2019-03-28T18:33:53.671Z,47.39
2019-03-28T18:36:26.240Z,47.07
2019-03-28T18:38:57.624Z,47.84
2019-03-28T18:41:30.036Z,48.26
2019-03-28T18:44:00.310Z,47.76
2019-03-28T18:46:31.014Z,48.24
2019-03-28T18:49:01.291Z,47.70
2019-03-28T18:51:31.669Z,47.63
2019-03-28T18:54:03.653Z,47.45
2019-03-28T18:56:35.126Z,47.41
2019-03-28T18:59:05.527Z,47.42
2019-03-28T19:01:36.199Z,47.61
2019-03-28T19:04:09.558Z,49.13
2019-03-28T19:06:42.203Z,48.57
2019-03-28T19:09:12.544Z,48.22
2019-03-28T19:11:42.847Z,48.36
2019-03-28T19:14:13.570Z,48.33
2019-03-28T19:16:44.053Z,48.45
2019-03-28T19:19:14.498Z,48.39
2019-03-28T19:21:45.204Z,48.38
2019-03-28T19:24:17.457Z,49.04
2019-03-28T19:26:48.082Z,49.21
2019-03-28T19:29:18.997Z,49.67
2019-03-28T19:31:49.233Z,50.09
2019-03-28T19:34:19.512Z,49.81
2019-03-28T19:36:50.599Z,49.88
2019-03-28T19:39:29.516Z,50.19
2019-03-28T19:42:00.061Z,50.24
2019-03-28T19:44:31.561Z,50.45
2019-03-28T19:47:02.326Z,50.20
2019-03-28T19:49:32.828Z,50.87
2019-03-28T19:52:08.320Z,50.87
2019-03-28T19:54:40.286Z,50.19
2019-03-28T19:57:13.081Z,50.10
2019-03-28T19:59:44.978Z,50.31
2019-03-28T20:02:18.626Z,49.92
2019-03-28T20:04:49.755Z,49.82
2019-03-28T20:07:23.087Z,50.87
2019-03-28T20:09:53.458Z,50.76
2019-03-28T20:12:23.863Z,51.15
2019-03-28T20:14:54.446Z,51.35
2019-03-28T20:17:24.715Z,51.52
2019-03-28T20:19:56.377Z,52.52
2019-03-28T20:22:26.931Z,52.10
2019-03-28T20:24:58.776Z,52.19
2019-03-28T20:27:29.248Z,52.38
2019-03-28T20:30:00.944Z,52.08
2019-03-28T20:32:31.544Z,52.02
2019-03-28T20:35:03.481Z,52.34
2019-03-28T20:37:34.172Z,52.40
2019-03-28T20:40:07.103Z,52.58
2019-03-28T20:42:37.437Z,52.89
2019-03-28T20:45:07.939Z,52.79
2019-03-28T20:47:38.385Z,53.33
2019-03-28T20:50:09.522Z,53.43
2019-03-28T20:52:39.748Z,52.66
2019-03-28T20:55:10.439Z,53.08
2019-03-28T20:57:40.740Z,53.15
2019-03-28T21:00:13.074Z,53.40
2019-03-28T21:02:45.378Z,53.00
2019-03-28T21:05:41.784Z,53.14
2019-03-28T21:08:12.819Z,53.26
2019-03-28T21:10:43.451Z,53.48
2019-03-28T21:13:13.734Z,52.99
2019-03-28T21:15:44.177Z,52.95
2019-03-28T21:18:15.407Z,53.43
2019-03-28T21:20:46.085Z,53.28
2019-03-28T21:23:16.441Z,53.52
2019-03-28T21:25:46.925Z,53.66
2019-03-28T21:28:17.234Z,53.84
2019-03-28T21:30:49.564Z,53.31
2019-03-28T21:33:20.504Z,53.52
2019-03-28T21:35:53.548Z,53.44
2019-03-28T21:38:27.939Z,53.09
2019-03-28T21:40:59.588Z,53.39
2019-03-28T21:43:30.835Z,52.99
2019-03-28T21:46:03.707Z,52.65
2019-03-28T21:48:33.793Z,52.89
2019-03-28T21:51:04.178Z,52.71
2019-03-28T21:53:35.180Z,52.62
2019-03-28T21:56:08.477Z,52.64
2019-03-28T21:58:38.620Z,52.49
2019-03-28T22:01:08.729Z,52.72
2019-03-28T22:03:41.135Z,52.66
2019-03-28T22:06:11.548Z,52.85
2019-03-28T22:08:41.517Z,52.59
2019-03-28T22:11:11.330Z,52.73
2019-03-28T22:13:41.195Z,52.88
2019-03-28T22:16:11.062Z,52.63
2019-03-28T22:18:41.221Z,52.76
2019-03-28T22:21:11.033Z,52.78
2019-03-28T22:23:40.842Z,52.98
2019-03-28T22:26:11.057Z,52.96
2019-03-28T22:28:40.842Z,52.98
2019-03-28T22:31:10.663Z,53.18
2019-03-28T22:33:41.806Z,54.06
2019-03-28T22:36:11.671Z,54.76
2019-03-28T22:38:41.513Z,54.90
2019-03-28T22:41:11.348Z,54.90
2019-03-28T22:43:41.146Z,55.26
2019-03-28T22:46:11.145Z,55.22
2019-03-28T22:48:44.307Z,55.31
2019-03-28T22:51:12.784Z,55.82
2019-03-28T22:53:42.594Z,55.92
2019-03-28T22:56:12.717Z,56.01
2019-03-28T22:58:42.490Z,56.36
2019-03-28T23:01:12.376Z,56.51
2019-03-28T23:03:42.596Z,57.59
2019-03-28T23:06:13.267Z,56.81
2019-03-28T23:08:43.009Z,56.44
2019-03-28T23:11:13.863Z,56.42
2019-03-28T23:13:43.697Z,56.88
2019-03-28T23:16:13.505Z,56.56
2019-03-28T23:18:43.373Z,57.00
2019-03-28T23:21:13.235Z,56.90
2019-03-28T23:23:43.097Z,56.98
2019-03-28T23:26:13.209Z,56.43
2019-03-28T23:28:42.968Z,56.07
2019-03-28T23:31:12.724Z,55.83
2019-03-28T23:33:42.588Z,55.86
2019-03-28T23:36:12.347Z,55.32
2019-03-28T23:38:42.363Z,55.26
2019-03-28T23:41:12.451Z,55.44
2019-03-28T23:43:42.216Z,55.02
2019-03-28T23:46:12.082Z,55.07
2019-03-28T23:48:42.582Z,55.72
2019-03-28T23:51:12.362Z,55.42
2019-03-28T23:53:42.149Z,55.20
2019-03-28T23:56:12.202Z,55.22
2019-03-28T23:58:41.959Z,55.14
